createdAt,value
2017-04-10T00:00:57.258Z,0
2017-04-10T00:05:54.892Z,0
2017-04-10T00:10:50.959Z,0
2017-04-10T00:15:47.336Z,0
2017-04-10T00:20:43.949Z,0
2017-04-10T00:25:40.234Z,0
2017-04-10T00:30:36.567Z,0
2017-04-10T00:35:33.772Z,0
2017-04-10T00:40:30.117Z,0
2017-04-10T00:45:26.658Z,0
2017-04-10T00:50:23.130Z,0
2017-04-10T00:55:20.667Z,0
2017-04-10T01:00:16.491Z,0
2017-04-10T01:05:13.089Z,0
2017-04-10T01:10:09.843Z,0
2017-04-10T01:15:06.444Z,0
2017-04-10T01:20:02.939Z,0
2017-04-10T01:24:59.365Z,0
2017-04-10T01:29:56.504Z,0
2017-04-10T01:34:53.193Z,0
2017-04-10T01:39:50.065Z,0
2017-04-10T01:44:47.010Z,0
2017-04-10T01:49:43.595Z,0
2017-04-10T01:54:40.157Z,0
2017-04-10T01:59:36.341Z,0
2017-04-10T02:04:32.983Z,0
2017-04-10T02:09:29.472Z,0
2017-04-10T02:14:25.909Z,0
2017-04-10T02:19:22.259Z,0
2017-04-10T02:24:18.895Z,0
2017-04-10T02:29:15.142Z,0
2017-04-10T02:34:11.832Z,0
2017-04-10T02:39:08.311Z,0
2017-04-10T02:44:04.839Z,0
2017-04-10T02:49:01.048Z,0
2017-04-10T02:53:57.489Z,0
2017-04-10T02:58:53.681Z,0
2017-04-10T03:03:50.429Z,0
2017-04-10T03:08:46.590Z,0
2017-04-10T03:13:42.836Z,0
2017-04-10T03:18:39.487Z,0
2017-04-10T03:23:35.992Z,0
2017-04-10T03:28:32.834Z,0
2017-04-10T03:33:29.678Z,0
2017-04-10T03:38:26.227Z,0
2017-04-10T03:43:22.657Z,0
2017-04-10T03:48:19.321Z,0
2017-04-10T03:53:15.950Z,0
2017-04-10T03:58:12.488Z,0
2017-04-10T04:03:09.044Z,0
2017-04-10T04:08:05.513Z,0
2017-04-10T04:13:02.127Z,0
2017-04-10T04:17:58.647Z,0
2017-04-10T04:22:55.706Z,0
2017-04-10T04:27:52.278Z,0
2017-04-10T04:32:48.746Z,0
2017-04-10T04:37:45.535Z,0
2017-04-10T04:47:42.161Z,5
2017-04-10T04:52:39.058Z,10
2017-04-10T04:57:35.386Z,15
2017-04-10T05:02:32.165Z,20
2017-04-10T05:07:29.523Z,25
2017-04-10T05:12:25.761Z,35
2017-04-10T05:17:22.267Z,35
2017-04-10T05:22:20.072Z,35
2017-04-10T05:27:16.473Z,40
2017-04-10T05:32:13.181Z,50
2017-04-10T05:37:09.760Z,50
2017-04-10T05:42:05.941Z,50
2017-04-10T05:47:02.571Z,55
2017-04-10T05:51:59.115Z,55
2017-04-10T05:56:55.598Z,75
2017-04-10T06:01:52.250Z,90
2017-04-10T06:06:49.022Z,100
2017-04-10T06:11:45.507Z,100
2017-04-10T06:16:44.114Z,100
2017-04-10T06:21:40.637Z,95
2017-04-10T06:26:36.827Z,100
2017-04-10T06:31:34.153Z,90
2017-04-10T06:36:31.242Z,90
2017-04-10T06:41:29.138Z,100
2017-04-10T06:46:25.453Z,80
2017-04-10T06:51:21.939Z,90
2017-04-10T06:56:18.716Z,90
2017-04-10T07:01:15.272Z,110
2017-04-10T07:06:12.159Z,125
2017-04-10T07:11:08.754Z,120
2017-04-10T07:16:05.275Z,110
2017-04-10T07:21:01.823Z,115
2017-04-10T07:25:59.002Z,145
2017-04-10T07:30:56.038Z,130
2017-04-10T07:35:52.323Z,140
2017-04-10T07:40:48.759Z,105
2017-04-10T07:45:45.092Z,150
2017-04-10T07:50:41.595Z,140
2017-04-10T07:55:38.618Z,165
2017-04-10T08:00:35.628Z,255
2017-04-10T08:05:33.404Z,190
2017-04-10T08:10:30.368Z,300
2017-04-10T08:15:27.212Z,350
2017-04-10T08:20:24.206Z,225
2017-04-10T08:25:20.819Z,180
2017-04-10T08:30:17.289Z,145
2017-04-10T08:35:13.783Z,115
2017-04-10T08:40:09.954Z,70
2017-04-10T08:45:06.190Z,95
2017-04-10T08:50:04.954Z,90
2017-04-10T08:55:00.598Z,100
2017-04-10T08:59:57.159Z,180
2017-04-10T09:04:54.800Z,140
2017-04-10T09:09:51.488Z,145
2017-04-10T09:14:47.973Z,95
2017-04-10T09:19:44.716Z,125
2017-04-10T09:24:44.326Z,110
2017-04-10T09:29:40.685Z,55
2017-04-10T09:34:37.041Z,110
2017-04-10T09:39:33.891Z,30
2017-04-10T09:44:29.921Z,115
2017-04-10T09:49:26.980Z,135
2017-04-10T09:54:23.846Z,165
2017-04-10T09:59:21.165Z,430
2017-04-10T10:04:17.846Z,125
2017-04-10T10:09:14.203Z,145
2017-04-10T10:14:10.834Z,300
2017-04-10T10:19:07.842Z,280
2017-04-10T10:24:04.299Z,155
2017-04-10T10:29:00.526Z,210
2017-04-10T10:33:57.479Z,210
2017-04-10T10:38:54.446Z,305
2017-04-10T10:43:52.510Z,240
2017-04-10T10:48:49.166Z,235
2017-04-10T10:53:45.536Z,135
2017-04-10T10:58:41.842Z,220
2017-04-10T11:03:39.022Z,365
2017-04-10T11:08:35.685Z,280
2017-04-10T11:13:33.182Z,195
2017-04-10T11:18:29.046Z,130
2017-04-10T11:23:25.479Z,255
2017-04-10T11:28:22.342Z,365
2017-04-10T11:33:19.240Z,1125
2017-04-10T11:38:17.636Z,400
2017-04-10T11:43:13.914Z,255
2017-04-10T11:48:10.524Z,680
2017-04-10T11:53:09.711Z,1235
2017-04-10T11:58:07.883Z,550
2017-04-10T12:03:04.853Z,1845
2017-04-10T12:08:01.625Z,270
2017-04-10T12:12:57.277Z,195
2017-04-10T12:17:53.284Z,255
2017-04-10T12:22:49.354Z,235
2017-04-10T12:27:45.425Z,165
2017-04-10T12:32:41.662Z,250
2017-04-10T12:37:38.090Z,350
2017-04-10T12:42:35.260Z,695
2017-04-10T12:47:35.114Z,735
2017-04-10T12:52:32.361Z,735
2017-04-10T12:57:29.107Z,955
2017-04-10T13:02:27.401Z,1025
2017-04-10T13:07:23.385Z,340
2017-04-10T13:12:18.652Z,170
2017-04-10T13:17:14.537Z,395
2017-04-10T13:22:11.405Z,440
2017-04-10T13:27:08.463Z,325
2017-04-10T13:32:04.757Z,270
2017-04-10T13:37:01.043Z,330
2017-04-10T13:41:57.940Z,780
2017-04-10T13:46:55.264Z,300
2017-04-10T13:51:51.463Z,795
2017-04-10T13:56:49.744Z,1130
2017-04-10T14:01:46.329Z,235
2017-04-10T14:06:42.485Z,245
2017-04-10T14:11:39.851Z,800
2017-04-10T14:16:37.284Z,1135
2017-04-10T14:21:34.731Z,230
2017-04-10T14:26:31.003Z,230
2017-04-10T14:31:27.102Z,1050
2017-04-10T14:36:24.143Z,1110
2017-04-10T14:41:21.357Z,1050
2017-04-10T14:46:18.976Z,1340
2017-04-10T14:51:15.834Z,1135
2017-04-10T14:56:12.216Z,170
2017-04-10T15:01:10.391Z,215
2017-04-10T15:06:07.135Z,145
2017-04-10T15:11:02.809Z,130
2017-04-10T15:15:58.489Z,130
2017-04-10T15:20:55.014Z,145
2017-04-10T15:25:51.579Z,130
2017-04-10T15:30:48.419Z,120
2017-04-10T15:35:44.744Z,145
2017-04-10T15:40:41.466Z,140
2017-04-10T15:45:37.799Z,140
2017-04-10T15:50:34.339Z,125
2017-04-10T15:55:30.982Z,125
2017-04-10T16:00:28.458Z,130
2017-04-10T16:05:24.938Z,130
2017-04-10T16:10:21.063Z,115
2017-04-10T16:15:17.443Z,105
2017-04-10T16:20:14.242Z,90
2017-04-10T16:25:10.781Z,75
2017-04-10T16:30:14.379Z,60
2017-04-10T16:35:10.421Z,75
2017-04-10T16:40:06.822Z,85
2017-04-10T16:45:03.224Z,90
2017-04-10T16:50:00.064Z,75
2017-04-10T16:54:56.279Z,70
2017-04-10T16:59:52.621Z,60
2017-04-10T17:04:49.577Z,55
2017-04-10T17:09:45.978Z,40
2017-04-10T17:14:43.835Z,45
2017-04-10T17:19:47.955Z,55
2017-04-10T17:24:43.257Z,45
2017-04-10T17:29:39.908Z,40
2017-04-10T17:34:36.638Z,35
2017-04-10T17:44:37.552Z,25
2017-04-10T17:49:34.055Z,20
2017-04-10T17:54:30.638Z,20
2017-04-10T17:59:27.118Z,15
2017-04-10T18:04:24.623Z,10
2017-04-10T18:09:20.962Z,5
2017-04-10T18:14:17.527Z,5
2017-04-10T18:19:14.344Z,0
2017-04-10T18:24:10.715Z,0
2017-04-10T18:29:07.066Z,0
2017-04-10T18:34:04.388Z,0
2017-04-10T18:39:00.559Z,0
2017-04-10T18:43:57.019Z,0
2017-04-10T18:48:53.824Z,0
2017-04-10T18:53:50.160Z,0
2017-04-10T18:58:47.251Z,0
2017-04-10T19:03:44.030Z,0
2017-04-10T19:08:40.512Z,0
2017-04-10T19:13:37.168Z,0
2017-04-10T19:18:33.467Z,0
2017-04-10T19:23:30.289Z,0
2017-04-10T19:28:26.670Z,0
2017-04-10T19:33:23.466Z,0
2017-04-10T19:38:19.686Z,0
2017-04-10T19:43:16.747Z,0
2017-04-10T19:48:13.155Z,0
2017-04-10T19:53:09.576Z,0
2017-04-10T19:58:06.013Z,0
2017-04-10T20:03:02.642Z,0
2017-04-10T20:07:59.135Z,0
2017-04-10T20:12:55.875Z,0
2017-04-10T20:17:52.321Z,0
2017-04-10T20:22:48.856Z,0
2017-04-10T20:27:45.154Z,0
2017-04-10T20:32:41.837Z,0
2017-04-10T20:37:38.679Z,0
2017-04-10T20:42:34.799Z,0
2017-04-10T20:47:31.169Z,0
2017-04-10T20:52:28.113Z,0
2017-04-10T20:57:24.101Z,0
2017-04-10T21:02:20.568Z,0
2017-04-10T21:07:17.099Z,0
2017-04-10T21:12:13.648Z,0
2017-04-10T21:17:10.211Z,0
2017-04-10T21:22:06.815Z,0
2017-04-10T21:27:03.222Z,0
2017-04-10T21:31:59.443Z,0
2017-04-10T21:36:56.039Z,0
2017-04-10T21:41:52.889Z,0
2017-04-10T21:46:49.964Z,0
2017-04-10T21:51:46.098Z,0
2017-04-10T21:56:43.092Z,0
2017-04-10T22:01:40.029Z,0
2017-04-10T22:06:37.202Z,0
2017-04-10T22:11:37.861Z,0
2017-04-10T22:16:34.182Z,0
2017-04-10T22:21:30.605Z,0
2017-04-10T22:26:27.051Z,0
2017-04-10T22:31:24.327Z,0
2017-04-10T22:36:20.369Z,0
2017-04-10T22:41:17.639Z,0
2017-04-10T22:46:14.528Z,0
2017-04-10T22:51:10.929Z,0
2017-04-10T22:56:07.429Z,0
2017-04-10T23:01:04.735Z,0
2017-04-10T23:06:01.623Z,0
2017-04-10T23:10:57.775Z,0
2017-04-10T23:15:54.430Z,0
2017-04-10T23:20:50.806Z,0
2017-04-10T23:25:47.403Z,0
2017-04-10T23:30:43.870Z,0
2017-04-10T23:35:40.392Z,0
2017-04-10T23:40:36.550Z,0
2017-04-10T23:45:32.997Z,0
2017-04-10T23:50:29.509Z,0
2017-04-10T23:55:26.474Z,0
